sensor_id;sensor_type;location;lat;lon;timestamp;P1;durP1;ratioP1;P2;durP2;ratioP2
6452;SDS011;3259;51.080;13.712;2023-06-22T00:02:36;6.88;;;5.78;;
6452;SDS011;3259;51.080;13.712;2023-06-22T00:05:24;9.05;;;5.47;;
6452;SDS011;3259;51.080;13.712;2023-06-22T00:08:14;6.60;;;5.63;;
6452;SDS011;3259;51.080;13.712;2023-06-22T00:11:03;6.85;;;6.05;;
6452;SDS011;3259;51.080;13.712;2023-06-22T00:13:53;6.72;;;6.03;;
6452;SDS011;3259;51.080;13.712;2023-06-22T00:16:41;6.72;;;6.05;;
6452;SDS011;3259;51.080;13.712;2023-06-22T00:19:33;6.43;;;5.32;;
6452;SDS011;3259;51.080;13.712;2023-06-22T00:22:23;5.53;;;5.03;;
6452;SDS011;3259;51.080;13.712;2023-06-22T00:25:16;8.50;;;6.30;;
6452;SDS011;3259;51.080;13.712;2023-06-22T00:28:04;7.22;;;5.88;;
6452;SDS011;3259;51.080;13.712;2023-06-22T00:30:55;6.55;;;5.95;;
6452;SDS011;3259;51.080;13.712;2023-06-22T00:33:44;5.75;;;5.25;;
6452;SDS011;3259;51.080;13.712;2023-06-22T00:36:33;6.55;;;5.90;;
6452;SDS011;3259;51.080;13.712;2023-06-22T00:39:21;7.75;;;5.38;;
6452;SDS011;3259;51.080;13.712;2023-06-22T00:42:10;6.88;;;6.18;;
6452;SDS011;3259;51.080;13.712;2023-06-22T00:44:59;5.43;;;4.93;;
6452;SDS011;3259;51.080;13.712;2023-06-22T00:47:49;6.13;;;5.57;;
6452;SDS011;3259;51.080;13.712;2023-06-22T00:50:39;7.15;;;5.68;;
6452;SDS011;3259;51.080;13.712;2023-06-22T00:53:28;6.85;;;6.15;;
6452;SDS011;3259;51.080;13.712;2023-06-22T00:56:20;6.72;;;5.47;;
6452;SDS011;3259;51.080;13.712;2023-06-22T00:59:11;5.55;;;5.07;;
6452;SDS011;3259;51.080;13.712;2023-06-22T01:02:04;7.00;;;6.10;;
6452;SDS011;3259;51.080;13.712;2023-06-22T01:04:54;9.43;;;6.10;;
6452;SDS011;3259;51.080;13.712;2023-06-22T01:07:45;5.07;;;4.57;;
6452;SDS011;3259;51.080;13.712;2023-06-22T01:10:45;6.82;;;5.70;;
6452;SDS011;3259;51.080;13.712;2023-06-22T01:13:41;7.60;;;5.82;;
6452;SDS011;3259;51.080;13.712;2023-06-22T01:16:38;6.00;;;5.40;;
6452;SDS011;3259;51.080;13.712;2023-06-22T01:19:35;5.70;;;5.15;;
6452;SDS011;3259;51.080;13.712;2023-06-22T01:22:30;6.68;;;5.95;;
6452;SDS011;3259;51.080;13.712;2023-06-22T01:25:25;6.57;;;5.97;;
6452;SDS011;3259;51.080;13.712;2023-06-22T01:28:23;6.90;;;6.18;;
6452;SDS011;3259;51.080;13.712;2023-06-22T01:31:24;6.50;;;5.80;;
6452;SDS011;3259;51.080;13.712;2023-06-22T01:34:16;8.10;;;6.45;;
6452;SDS011;3259;51.080;13.712;2023-06-22T01:37:07;5.75;;;5.22;;
6452;SDS011;3259;51.080;13.712;2023-06-22T01:39:56;5.57;;;5.07;;
6452;SDS011;3259;51.080;13.712;2023-06-22T01:42:46;5.50;;;5.00;;
6452;SDS011;3259;51.080;13.712;2023-06-22T01:45:39;6.05;;;5.45;;
6452;SDS011;3259;51.080;13.712;2023-06-22T01:48:28;6.72;;;6.13;;
6452;SDS011;3259;51.080;13.712;2023-06-22T01:51:18;5.82;;;5.22;;
6452;SDS011;3259;51.080;13.712;2023-06-22T01:54:07;6.53;;;5.93;;
6452;SDS011;3259;51.080;13.712;2023-06-22T01:56:56;6.40;;;5.72;;
6452;SDS011;3259;51.080;13.712;2023-06-22T01:59:46;6.70;;;5.90;;
6452;SDS011;3259;51.080;13.712;2023-06-22T02:02:43;7.35;;;6.43;;
6452;SDS011;3259;51.080;13.712;2023-06-22T02:05:34;6.03;;;5.43;;
6452;SDS011;3259;51.080;13.712;2023-06-22T02:08:29;6.25;;;5.68;;
6452;SDS011;3259;51.080;13.712;2023-06-22T02:11:20;6.85;;;5.75;;
6452;SDS011;3259;51.080;13.712;2023-06-22T02:14:10;6.82;;;6.15;;
6452;SDS011;3259;51.080;13.712;2023-06-22T02:17:02;5.72;;;5.22;;
6452;SDS011;3259;51.080;13.712;2023-06-22T02:19:55;6.80;;;6.10;;
6452;SDS011;3259;51.080;13.712;2023-06-22T02:22:44;6.13;;;5.53;;
6452;SDS011;3259;51.080;13.712;2023-06-22T02:25:33;9.68;;;5.70;;
6452;SDS011;3259;51.080;13.712;2023-06-22T02:28:21;7.03;;;5.65;;
6452;SDS011;3259;51.080;13.712;2023-06-22T02:31:10;8.75;;;6.95;;
6452;SDS011;3259;51.080;13.712;2023-06-22T02:33:59;12.57;;;7.20;;
6452;SDS011;3259;51.080;13.712;2023-06-22T02:36:49;7.57;;;6.82;;
6452;SDS011;3259;51.080;13.712;2023-06-22T02:39:38;7.43;;;6.30;;
6452;SDS011;3259;51.080;13.712;2023-06-22T02:42:27;6.70;;;6.10;;
6452;SDS011;3259;51.080;13.712;2023-06-22T02:45:16;8.13;;;6.03;;
6452;SDS011;3259;51.080;13.712;2023-06-22T02:48:04;6.05;;;5.47;;
6452;SDS011;3259;51.080;13.712;2023-06-22T02:50:53;8.93;;;6.85;;
6452;SDS011;3259;51.080;13.712;2023-06-22T02:53:43;6.55;;;5.90;;
6452;SDS011;3259;51.080;13.712;2023-06-22T02:56:32;7.15;;;6.05;;
6452;SDS011;3259;51.080;13.712;2023-06-22T02:59:23;6.70;;;5.78;;
6452;SDS011;3259;51.080;13.712;2023-06-22T03:02:11;11.75;;;6.05;;
6452;SDS011;3259;51.080;13.712;2023-06-22T03:05:00;8.45;;;6.13;;
6452;SDS011;3259;51.080;13.712;2023-06-22T03:07:50;6.55;;;5.75;;
6452;SDS011;3259;51.080;13.712;2023-06-22T03:10:40;6.38;;;5.32;;
6452;SDS011;3259;51.080;13.712;2023-06-22T03:13:29;6.85;;;6.15;;
6452;SDS011;3259;51.080;13.712;2023-06-22T03:16:18;6.20;;;5.35;;
6452;SDS011;3259;51.080;13.712;2023-06-22T03:19:07;7.28;;;5.78;;
6452;SDS011;3259;51.080;13.712;2023-06-22T03:21:55;7.38;;;6.28;;
6452;SDS011;3259;51.080;13.712;2023-06-22T03:24:44;6.97;;;6.30;;
6452;SDS011;3259;51.080;13.712;2023-06-22T03:27:34;6.78;;;5.95;;
6452;SDS011;3259;51.080;13.712;2023-06-22T03:30:23;6.60;;;5.68;;
6452;SDS011;3259;51.080;13.712;2023-06-22T03:33:12;7.75;;;7.05;;
6452;SDS011;3259;51.080;13.712;2023-06-22T03:36:01;6.68;;;5.97;;
6452;SDS011;3259;51.080;13.712;2023-06-22T03:38:50;10.35;;;6.13;;
6452;SDS011;3259;51.080;13.712;2023-06-22T03:41:39;6.55;;;5.50;;
6452;SDS011;3259;51.080;13.712;2023-06-22T03:44:29;7.10;;;6.03;;
6452;SDS011;3259;51.080;13.712;2023-06-22T03:47:18;6.55;;;5.82;;
6452;SDS011;3259;51.080;13.712;2023-06-22T03:50:07;6.82;;;6.13;;
6452;SDS011;3259;51.080;13.712;2023-06-22T03:52:57;7.20;;;5.18;;
6452;SDS011;3259;51.080;13.712;2023-06-22T03:55:48;6.25;;;5.65;;
6452;SDS011;3259;51.080;13.712;2023-06-22T03:58:37;8.02;;;5.93;;
6452;SDS011;3259;51.080;13.712;2023-06-22T04:01:31;8.68;;;6.75;;
6452;SDS011;3259;51.080;13.712;2023-06-22T04:04:20;6.88;;;6.18;;
6452;SDS011;3259;51.080;13.712;2023-06-22T04:07:09;6.75;;;6.05;;
6452;SDS011;3259;51.080;13.712;2023-06-22T04:09:58;7.28;;;5.45;;
6452;SDS011;3259;51.080;13.712;2023-06-22T04:12:46;6.03;;;5.43;;
6452;SDS011;3259;51.080;13.712;2023-06-22T04:15:35;6.60;;;5.75;;
6452;SDS011;3259;51.080;13.712;2023-06-22T04:18:25;6.72;;;5.97;;
6452;SDS011;3259;51.080;13.712;2023-06-22T04:21:14;5.88;;;5.28;;
6452;SDS011;3259;51.080;13.712;2023-06-22T04:24:02;7.45;;;5.97;;
6452;SDS011;3259;51.080;13.712;2023-06-22T04:26:51;7.45;;;5.70;;
6452;SDS011;3259;51.080;13.712;2023-06-22T04:29:41;6.50;;;5.93;;
6452;SDS011;3259;51.080;13.712;2023-06-22T04:32:35;8.52;;;6.38;;
6452;SDS011;3259;51.080;13.712;2023-06-22T04:35:25;8.25;;;5.90;;
6452;SDS011;3259;51.080;13.712;2023-06-22T04:38:15;6.38;;;5.55;;
6452;SDS011;3259;51.080;13.712;2023-06-22T04:41:03;7.07;;;6.05;;
6452;SDS011;3259;51.080;13.712;2023-06-22T04:43:52;7.25;;;6.05;;
6452;SDS011;3259;51.080;13.712;2023-06-22T04:46:46;6.15;;;5.55;;
6452;SDS011;3259;51.080;13.712;2023-06-22T04:49:40;6.78;;;5.82;;
6452;SDS011;3259;51.080;13.712;2023-06-22T04:52:31;7.03;;;5.53;;
6452;SDS011;3259;51.080;13.712;2023-06-22T04:55:20;6.43;;;5.38;;
6452;SDS011;3259;51.080;13.712;2023-06-22T04:58:08;6.13;;;5.53;;
6452;SDS011;3259;51.080;13.712;2023-06-22T05:00:59;6.07;;;5.47;;
6452;SDS011;3259;51.080;13.712;2023-06-22T05:03:50;7.07;;;5.25;;
6452;SDS011;3259;51.080;13.712;2023-06-22T05:06:42;9.27;;;6.05;;
6452;SDS011;3259;51.080;13.712;2023-06-22T05:09:33;6.32;;;5.47;;
6452;SDS011;3259;51.080;13.712;2023-06-22T05:12:22;6.22;;;5.63;;
6452;SDS011;3259;51.080;13.712;2023-06-22T05:15:10;6.15;;;5.55;;
6452;SDS011;3259;51.080;13.712;2023-06-22T05:17:59;6.38;;;5.68;;
6452;SDS011;3259;51.080;13.712;2023-06-22T05:20:52;7.40;;;5.20;;
6452;SDS011;3259;51.080;13.712;2023-06-22T05:23:41;6.57;;;5.40;;
6452;SDS011;3259;51.080;13.712;2023-06-22T05:26:31;8.73;;;5.95;;
6452;SDS011;3259;51.080;13.712;2023-06-22T05:29:21;7.20;;;5.75;;
6452;SDS011;3259;51.080;13.712;2023-06-22T05:32:10;6.28;;;5.65;;
6452;SDS011;3259;51.080;13.712;2023-06-22T05:35:16;6.53;;;5.50;;
6452;SDS011;3259;51.080;13.712;2023-06-22T05:38:05;7.10;;;5.72;;
6452;SDS011;3259;51.080;13.712;2023-06-22T05:40:54;10.07;;;5.97;;
6452;SDS011;3259;51.080;13.712;2023-06-22T05:43:45;9.70;;;6.13;;
6452;SDS011;3259;51.080;13.712;2023-06-22T05:46:34;7.10;;;6.10;;
6452;SDS011;3259;51.080;13.712;2023-06-22T05:49:23;12.38;;;6.25;;
6452;SDS011;3259;51.080;13.712;2023-06-22T05:52:16;9.30;;;7.00;;
6452;SDS011;3259;51.080;13.712;2023-06-22T05:55:05;7.93;;;5.55;;
6452;SDS011;3259;51.080;13.712;2023-06-22T05:57:54;9.57;;;6.35;;
6452;SDS011;3259;51.080;13.712;2023-06-22T06:00:44;6.60;;;5.38;;
6452;SDS011;3259;51.080;13.712;2023-06-22T06:03:36;6.05;;;5.45;;
6452;SDS011;3259;51.080;13.712;2023-06-22T06:06:28;8.90;;;4.97;;
6452;SDS011;3259;51.080;13.712;2023-06-22T06:09:47;6.93;;;5.05;;
6452;SDS011;3259;51.080;13.712;2023-06-22T06:12:36;7.85;;;5.97;;
6452;SDS011;3259;51.080;13.712;2023-06-22T06:15:25;13.15;;;6.05;;
6452;SDS011;3259;51.080;13.712;2023-06-22T06:18:17;24.45;;;9.95;;
6452;SDS011;3259;51.080;13.712;2023-06-22T06:21:18;9.27;;;6.55;;
6452;SDS011;3259;51.080;13.712;2023-06-22T06:24:07;22.15;;;7.45;;
6452;SDS011;3259;51.080;13.712;2023-06-22T06:26:56;19.70;;;6.38;;
6452;SDS011;3259;51.080;13.712;2023-06-22T06:29:45;9.07;;;7.22;;
6452;SDS011;3259;51.080;13.712;2023-06-22T06:32:35;7.47;;;6.18;;
6452;SDS011;3259;51.080;13.712;2023-06-22T06:35:26;7.78;;;6.13;;
6452;SDS011;3259;51.080;13.712;2023-06-22T06:38:15;8.38;;;6.10;;
6452;SDS011;3259;51.080;13.712;2023-06-22T06:41:04;6.70;;;5.78;;
6452;SDS011;3259;51.080;13.712;2023-06-22T06:43:53;8.20;;;5.78;;
6452;SDS011;3259;51.080;13.712;2023-06-22T06:46:42;7.97;;;6.25;;
6452;SDS011;3259;51.080;13.712;2023-06-22T06:49:33;6.72;;;6.03;;
6452;SDS011;3259;51.080;13.712;2023-06-22T06:52:23;10.10;;;6.18;;
6452;SDS011;3259;51.080;13.712;2023-06-22T06:55:12;6.28;;;5.70;;
6452;SDS011;3259;51.080;13.712;2023-06-22T06:58:01;6.45;;;5.80;;
6452;SDS011;3259;51.080;13.712;2023-06-22T07:00:54;7.70;;;6.43;;
6452;SDS011;3259;51.080;13.712;2023-06-22T07:03:43;5.82;;;5.28;;
6452;SDS011;3259;51.080;13.712;2023-06-22T07:06:32;6.35;;;5.75;;
6452;SDS011;3259;51.080;13.712;2023-06-22T07:09:22;7.63;;;6.28;;
6452;SDS011;3259;51.080;13.712;2023-06-22T07:12:10;7.50;;;6.22;;
6452;SDS011;3259;51.080;13.712;2023-06-22T07:15:02;6.28;;;5.43;;
6452;SDS011;3259;51.080;13.712;2023-06-22T07:17:54;8.05;;;5.60;;
6452;SDS011;3259;51.080;13.712;2023-06-22T07:20:43;11.57;;;6.40;;
6452;SDS011;3259;51.080;13.712;2023-06-22T07:23:32;9.25;;;5.78;;
6452;SDS011;3259;51.080;13.712;2023-06-22T07:26:22;6.60;;;6.03;;
6452;SDS011;3259;51.080;13.712;2023-06-22T07:29:11;9.07;;;5.40;;
6452;SDS011;3259;51.080;13.712;2023-06-22T07:32:00;9.10;;;5.55;;
6452;SDS011;3259;51.080;13.712;2023-06-22T07:34:51;9.65;;;6.40;;
6452;SDS011;3259;51.080;13.712;2023-06-22T07:37:40;7.18;;;5.57;;
6452;SDS011;3259;51.080;13.712;2023-06-22T07:40:29;7.85;;;5.50;;
6452;SDS011;3259;51.080;13.712;2023-06-22T07:43:19;6.18;;;5.68;;
6452;SDS011;3259;51.080;13.712;2023-06-22T07:46:10;5.80;;;5.30;;
6452;SDS011;3259;51.080;13.712;2023-06-22T07:48:58;5.78;;;5.22;;
6452;SDS011;3259;51.080;13.712;2023-06-22T07:51:48;5.38;;;4.93;;
6452;SDS011;3259;51.080;13.712;2023-06-22T07:54:37;6.32;;;4.82;;
6452;SDS011;3259;51.080;13.712;2023-06-22T07:57:28;13.70;;;5.07;;
6452;SDS011;3259;51.080;13.712;2023-06-22T08:00:22;5.90;;;4.18;;
6452;SDS011;3259;51.080;13.712;2023-06-22T08:03:11;5.30;;;4.35;;
6452;SDS011;3259;51.080;13.712;2023-06-22T08:06:00;4.97;;;4.55;;
6452;SDS011;3259;51.080;13.712;2023-06-22T08:08:50;5.00;;;4.55;;
6452;SDS011;3259;51.080;13.712;2023-06-22T08:11:41;6.07;;;5.00;;
6452;SDS011;3259;51.080;13.712;2023-06-22T08:14:30;4.30;;;3.90;;
6452;SDS011;3259;51.080;13.712;2023-06-22T08:17:20;10.82;;;4.43;;
6452;SDS011;3259;51.080;13.712;2023-06-22T08:20:10;4.82;;;4.40;;
6452;SDS011;3259;51.080;13.712;2023-06-22T08:22:59;4.97;;;3.90;;
6452;SDS011;3259;51.080;13.712;2023-06-22T08:25:52;4.70;;;4.30;;
6452;SDS011;3259;51.080;13.712;2023-06-22T08:28:41;4.43;;;4.00;;
6452;SDS011;3259;51.080;13.712;2023-06-22T08:31:30;4.40;;;4.00;;
6452;SDS011;3259;51.080;13.712;2023-06-22T08:34:22;4.10;;;3.80;;
6452;SDS011;3259;51.080;13.712;2023-06-22T08:37:14;5.70;;;3.85;;
6452;SDS011;3259;51.080;13.712;2023-06-22T08:40:04;4.00;;;3.70;;
6452;SDS011;3259;51.080;13.712;2023-06-22T08:42:55;5.72;;;3.90;;
6452;SDS011;3259;51.080;13.712;2023-06-22T08:45:44;4.10;;;3.72;;
6452;SDS011;3259;51.080;13.712;2023-06-22T08:48:33;3.90;;;3.60;;
6452;SDS011;3259;51.080;13.712;2023-06-22T08:51:23;3.60;;;3.33;;
6452;SDS011;3259;51.080;13.712;2023-06-22T08:54:12;3.63;;;3.33;;
6452;SDS011;3259;51.080;13.712;2023-06-22T08:57:01;3.58;;;3.00;;
6452;SDS011;3259;51.080;13.712;2023-06-22T08:59:50;4.38;;;3.15;;
6452;SDS011;3259;51.080;13.712;2023-06-22T09:02:39;5.35;;;3.50;;
6452;SDS011;3259;51.080;13.712;2023-06-22T09:05:28;3.40;;;3.20;;
6452;SDS011;3259;51.080;13.712;2023-06-22T09:08:19;3.20;;;2.92;;
6452;SDS011;3259;51.080;13.712;2023-06-22T09:11:08;4.07;;;3.10;;
6452;SDS011;3259;51.080;13.712;2023-06-22T09:13:57;3.17;;;2.97;;
6452;SDS011;3259;51.080;13.712;2023-06-22T09:16:46;3.58;;;3.13;;
6452;SDS011;3259;51.080;13.712;2023-06-22T09:19:35;6.45;;;3.42;;
6452;SDS011;3259;51.080;13.712;2023-06-22T09:22:23;3.15;;;2.85;;
6452;SDS011;3259;51.080;13.712;2023-06-22T09:25:17;3.55;;;3.22;;
6452;SDS011;3259;51.080;13.712;2023-06-22T09:28:07;4.53;;;2.47;;
6452;SDS011;3259;51.080;13.712;2023-06-22T09:30:56;2.78;;;2.58;;
6452;SDS011;3259;51.080;13.712;2023-06-22T09:33:46;2.33;;;2.20;;
6452;SDS011;3259;51.080;13.712;2023-06-22T09:36:35;2.90;;;2.72;;
6452;SDS011;3259;51.080;13.712;2023-06-22T09:39:26;3.25;;;2.45;;
6452;SDS011;3259;51.080;13.712;2023-06-22T09:42:16;3.38;;;2.67;;
6452;SDS011;3259;51.080;13.712;2023-06-22T09:45:05;2.30;;;2.20;;
6452;SDS011;3259;51.080;13.712;2023-06-22T09:47:54;1.92;;;1.83;;
6452;SDS011;3259;51.080;13.712;2023-06-22T09:50:43;2.97;;;2.63;;
6452;SDS011;3259;51.080;13.712;2023-06-22T09:53:32;2.22;;;2.13;;
6452;SDS011;3259;51.080;13.712;2023-06-22T09:56:21;2.22;;;2.03;;
6452;SDS011;3259;51.080;13.712;2023-06-22T09:59:15;1.90;;;1.80;;
6452;SDS011;3259;51.080;13.712;2023-06-22T10:02:05;2.70;;;2.50;;
6452;SDS011;3259;51.080;13.712;2023-06-22T10:04:54;2.20;;;2.10;;
6452;SDS011;3259;51.080;13.712;2023-06-22T10:07:44;3.03;;;2.35;;
6452;SDS011;3259;51.080;13.712;2023-06-22T10:10:33;2.45;;;2.35;;
6452;SDS011;3259;51.080;13.712;2023-06-22T10:13:21;2.63;;;2.42;;
6452;SDS011;3259;51.080;13.712;2023-06-22T10:16:11;4.82;;;2.30;;
6452;SDS011;3259;51.080;13.712;2023-06-22T10:19:00;3.13;;;1.90;;
6452;SDS011;3259;51.080;13.712;2023-06-22T10:21:49;1.98;;;1.88;;
6452;SDS011;3259;51.080;13.712;2023-06-22T10:24:38;2.40;;;2.20;;
6452;SDS011;3259;51.080;13.712;2023-06-22T10:27:31;2.03;;;1.92;;
6452;SDS011;3259;51.080;13.712;2023-06-22T10:30:19;2.15;;;2.00;;
6452;SDS011;3259;51.080;13.712;2023-06-22T10:33:10;3.78;;;2.15;;
6452;SDS011;3259;51.080;13.712;2023-06-22T10:35:59;2.60;;;2.10;;
6452;SDS011;3259;51.080;13.712;2023-06-22T10:38:48;1.90;;;1.80;;
6452;SDS011;3259;51.080;13.712;2023-06-22T10:41:37;1.95;;;1.85;;
6452;SDS011;3259;51.080;13.712;2023-06-22T10:44:25;4.97;;;2.83;;
6452;SDS011;3259;51.080;13.712;2023-06-22T10:47:14;121.18;;;52.63;;
6452;SDS011;3259;51.080;13.712;2023-06-22T10:50:05;258.35;;;112.45;;
6452;SDS011;3259;51.080;13.712;2023-06-22T10:52:54;373.67;;;173.52;;
6452;SDS011;3259;51.080;13.712;2023-06-22T10:55:46;512.20;;;285.20;;
6452;SDS011;3259;51.080;13.712;2023-06-22T10:58:44;527.60;;;296.52;;
6452;SDS011;3259;51.080;13.712;2023-06-22T11:01:33;573.55;;;327.90;;
6452;SDS011;3259;51.080;13.712;2023-06-22T11:04:23;572.85;;;332.95;;
6452;SDS011;3259;51.080;13.712;2023-06-22T11:07:14;554.10;;;318.00;;
6452;SDS011;3259;51.080;13.712;2023-06-22T11:10:03;546.17;;;312.60;;
6452;SDS011;3259;51.080;13.712;2023-06-22T11:12:53;536.05;;;304.85;;
6452;SDS011;3259;51.080;13.712;2023-06-22T11:15:43;523.45;;;299.83;;
6452;SDS011;3259;51.080;13.712;2023-06-22T11:18:32;513.05;;;290.73;;
6452;SDS011;3259;51.080;13.712;2023-06-22T11:21:21;507.63;;;285.05;;
6452;SDS011;3259;51.080;13.712;2023-06-22T11:24:11;488.95;;;275.75;;
6452;SDS011;3259;51.080;13.712;2023-06-22T11:27:00;471.10;;;261.75;;
6452;SDS011;3259;51.080;13.712;2023-06-22T11:29:48;457.42;;;255.00;;
6452;SDS011;3259;51.080;13.712;2023-06-22T11:32:39;446.02;;;245.23;;
6452;SDS011;3259;51.080;13.712;2023-06-22T11:35:28;440.02;;;241.68;;
6452;SDS011;3259;51.080;13.712;2023-06-22T11:38:17;435.13;;;233.00;;
6452;SDS011;3259;51.080;13.712;2023-06-22T11:41:07;432.40;;;228.85;;
6452;SDS011;3259;51.080;13.712;2023-06-22T11:43:56;420.92;;;218.70;;
6452;SDS011;3259;51.080;13.712;2023-06-22T11:46:45;401.92;;;209.60;;
6452;SDS011;3259;51.080;13.712;2023-06-22T11:49:35;397.23;;;206.70;;
6452;SDS011;3259;51.080;13.712;2023-06-22T11:52:23;383.77;;;197.73;;
6452;SDS011;3259;51.080;13.712;2023-06-22T11:55:13;382.95;;;196.13;;
6452;SDS011;3259;51.080;13.712;2023-06-22T11:58:06;368.75;;;190.73;;
6452;SDS011;3259;51.080;13.712;2023-06-22T12:00:55;359.38;;;189.60;;
6452;SDS011;3259;51.080;13.712;2023-06-22T12:03:45;369.63;;;186.48;;
6452;SDS011;3259;51.080;13.712;2023-06-22T12:06:35;349.92;;;183.35;;
6452;SDS011;3259;51.080;13.712;2023-06-22T12:09:28;351.73;;;180.15;;
6452;SDS011;3259;51.080;13.712;2023-06-22T12:12:17;337.30;;;172.85;;
6452;SDS011;3259;51.080;13.712;2023-06-22T12:15:08;326.50;;;169.32;;
6452;SDS011;3259;51.080;13.712;2023-06-22T12:17:58;329.58;;;167.95;;
6452;SDS011;3259;51.080;13.712;2023-06-22T12:20:48;319.48;;;164.80;;
6452;SDS011;3259;51.080;13.712;2023-06-22T12:23:37;319.60;;;163.65;;
6452;SDS011;3259;51.080;13.712;2023-06-22T12:26:25;309.58;;;156.57;;
6452;SDS011;3259;51.080;13.712;2023-06-22T12:29:14;306.15;;;156.95;;
6452;SDS011;3259;51.080;13.712;2023-06-22T12:32:05;308.58;;;158.10;;
6452;SDS011;3259;51.080;13.712;2023-06-22T12:34:54;289.73;;;149.40;;
6452;SDS011;3259;51.080;13.712;2023-06-22T12:37:43;284.85;;;148.27;;
6452;SDS011;3259;51.080;13.712;2023-06-22T12:40:31;272.30;;;142.27;;
6452;SDS011;3259;51.080;13.712;2023-06-22T12:43:20;272.52;;;145.23;;
6452;SDS011;3259;51.080;13.712;2023-06-22T12:46:09;270.45;;;141.15;;
6452;SDS011;3259;51.080;13.712;2023-06-22T12:48:59;262.02;;;136.65;;
6452;SDS011;3259;51.080;13.712;2023-06-22T12:51:51;259.90;;;135.93;;
6452;SDS011;3259;51.080;13.712;2023-06-22T12:54:39;248.52;;;133.00;;
6452;SDS011;3259;51.080;13.712;2023-06-22T12:57:40;251.52;;;133.93;;
6452;SDS011;3259;51.080;13.712;2023-06-22T13:00:29;253.13;;;132.60;;
6452;SDS011;3259;51.080;13.712;2023-06-22T13:03:18;236.98;;;127.53;;
6452;SDS011;3259;51.080;13.712;2023-06-22T13:06:08;231.00;;;126.38;;
6452;SDS011;3259;51.080;13.712;2023-06-22T13:08:57;229.88;;;125.63;;
6452;SDS011;3259;51.080;13.712;2023-06-22T13:11:48;225.60;;;119.65;;
6452;SDS011;3259;51.080;13.712;2023-06-22T13:14:39;213.40;;;113.72;;
6452;SDS011;3259;51.080;13.712;2023-06-22T13:17:27;214.88;;;117.78;;
6452;SDS011;3259;51.080;13.712;2023-06-22T13:20:16;201.70;;;108.43;;
6452;SDS011;3259;51.080;13.712;2023-06-22T13:23:06;201.38;;;109.00;;
6452;SDS011;3259;51.080;13.712;2023-06-22T13:25:55;208.77;;;109.43;;
6452;SDS011;3259;51.080;13.712;2023-06-22T13:28:44;194.73;;;104.53;;
6452;SDS011;3259;51.080;13.712;2023-06-22T13:31:33;187.85;;;105.65;;
6452;SDS011;3259;51.080;13.712;2023-06-22T13:34:39;185.00;;;102.38;;
6452;SDS011;3259;51.080;13.712;2023-06-22T13:37:28;176.27;;;98.88;;
6452;SDS011;3259;51.080;13.712;2023-06-22T13:40:18;178.80;;;100.72;;
6452;SDS011;3259;51.080;13.712;2023-06-22T13:43:07;177.25;;;97.18;;
6452;SDS011;3259;51.080;13.712;2023-06-22T13:45:56;168.82;;;93.82;;
6452;SDS011;3259;51.080;13.712;2023-06-22T13:48:45;173.95;;;96.70;;
6452;SDS011;3259;51.080;13.712;2023-06-22T13:51:34;181.82;;;93.60;;
6452;SDS011;3259;51.080;13.712;2023-06-22T13:54:24;163.55;;;94.45;;
6452;SDS011;3259;51.080;13.712;2023-06-22T13:57:18;162.23;;;91.07;;
6452;SDS011;3259;51.080;13.712;2023-06-22T14:00:08;152.88;;;87.80;;
6452;SDS011;3259;51.080;13.712;2023-06-22T14:02:59;144.75;;;83.70;;
6452;SDS011;3259;51.080;13.712;2023-06-22T14:05:48;153.27;;;87.00;;
6452;SDS011;3259;51.080;13.712;2023-06-22T14:08:37;151.63;;;82.38;;
6452;SDS011;3259;51.080;13.712;2023-06-22T14:11:27;149.52;;;82.90;;
6452;SDS011;3259;51.080;13.712;2023-06-22T14:14:18;131.57;;;76.80;;
6452;SDS011;3259;51.080;13.712;2023-06-22T14:17:06;132.25;;;76.63;;
6452;SDS011;3259;51.080;13.712;2023-06-22T14:19:55;127.07;;;73.57;;
6452;SDS011;3259;51.080;13.712;2023-06-22T14:22:44;140.85;;;79.43;;
6452;SDS011;3259;51.080;13.712;2023-06-22T14:25:32;127.43;;;74.85;;
6452;SDS011;3259;51.080;13.712;2023-06-22T14:28:21;136.27;;;75.05;;
6452;SDS011;3259;51.080;13.712;2023-06-22T14:31:11;128.13;;;74.65;;
6452;SDS011;3259;51.080;13.712;2023-06-22T14:34:01;124.50;;;72.88;;
6452;SDS011;3259;51.080;13.712;2023-06-22T14:36:52;124.13;;;69.25;;
6452;SDS011;3259;51.080;13.712;2023-06-22T14:39:41;121.30;;;68.78;;
6452;SDS011;3259;51.080;13.712;2023-06-22T14:42:30;121.65;;;66.43;;
6452;SDS011;3259;51.080;13.712;2023-06-22T14:45:19;119.00;;;67.05;;
6452;SDS011;3259;51.080;13.712;2023-06-22T14:48:09;103.68;;;62.22;;
6452;SDS011;3259;51.080;13.712;2023-06-22T14:50:58;111.32;;;64.78;;
6452;SDS011;3259;51.080;13.712;2023-06-22T14:53:47;114.68;;;63.75;;
6452;SDS011;3259;51.080;13.712;2023-06-22T14:56:36;111.07;;;62.38;;
6452;SDS011;3259;51.080;13.712;2023-06-22T14:59:24;105.25;;;60.25;;
6452;SDS011;3259;51.080;13.712;2023-06-22T15:02:13;101.82;;;59.95;;
6452;SDS011;3259;51.080;13.712;2023-06-22T15:05:04;102.53;;;59.38;;
6452;SDS011;3259;51.080;13.712;2023-06-22T15:07:53;94.35;;;56.67;;
6452;SDS011;3259;51.080;13.712;2023-06-22T15:10:41;95.50;;;56.10;;
6452;SDS011;3259;51.080;13.712;2023-06-22T15:13:30;88.97;;;55.40;;
6452;SDS011;3259;51.080;13.712;2023-06-22T15:16:21;95.38;;;54.50;;
6452;SDS011;3259;51.080;13.712;2023-06-22T15:19:09;88.53;;;54.05;;
6452;SDS011;3259;51.080;13.712;2023-06-22T15:22:00;88.07;;;54.25;;
6452;SDS011;3259;51.080;13.712;2023-06-22T15:24:49;87.88;;;52.17;;
6452;SDS011;3259;51.080;13.712;2023-06-22T15:27:39;88.05;;;52.00;;
6452;SDS011;3259;51.080;13.712;2023-06-22T15:30:28;80.88;;;49.67;;
6452;SDS011;3259;51.080;13.712;2023-06-22T15:33:17;79.55;;;49.63;;
6452;SDS011;3259;51.080;13.712;2023-06-22T15:36:06;82.30;;;51.08;;
6452;SDS011;3259;51.080;13.712;2023-06-22T15:38:57;79.57;;;49.05;;
6452;SDS011;3259;51.080;13.712;2023-06-22T15:41:45;78.78;;;48.35;;
6452;SDS011;3259;51.080;13.712;2023-06-22T15:44:34;88.43;;;53.40;;
6452;SDS011;3259;51.080;13.712;2023-06-22T15:47:23;129.15;;;73.57;;
6452;SDS011;3259;51.080;13.712;2023-06-22T15:50:12;120.35;;;66.30;;
6452;SDS011;3259;51.080;13.712;2023-06-22T15:53:01;108.88;;;61.53;;
6452;SDS011;3259;51.080;13.712;2023-06-22T15:55:51;130.15;;;70.15;;
6452;SDS011;3259;51.080;13.712;2023-06-22T15:58:41;138.18;;;69.88;;
6452;SDS011;3259;51.080;13.712;2023-06-22T16:01:29;127.55;;;69.10;;
6452;SDS011;3259;51.080;13.712;2023-06-22T16:04:18;124.03;;;66.50;;
6452;SDS011;3259;51.080;13.712;2023-06-22T16:07:07;127.15;;;65.50;;
6452;SDS011;3259;51.080;13.712;2023-06-22T16:09:57;108.57;;;59.67;;
6452;SDS011;3259;51.080;13.712;2023-06-22T16:12:47;118.18;;;59.30;;
6452;SDS011;3259;51.080;13.712;2023-06-22T16:15:39;111.40;;;58.60;;
6452;SDS011;3259;51.080;13.712;2023-06-22T16:18:27;103.90;;;54.33;;
6452;SDS011;3259;51.080;13.712;2023-06-22T16:21:16;100.65;;;54.65;;
6452;SDS011;3259;51.080;13.712;2023-06-22T16:24:05;90.57;;;51.78;;
6452;SDS011;3259;51.080;13.712;2023-06-22T16:26:54;89.93;;;51.80;;
6452;SDS011;3259;51.080;13.712;2023-06-22T16:29:44;96.72;;;49.13;;
6452;SDS011;3259;51.080;13.712;2023-06-22T16:32:33;81.95;;;48.42;;
6452;SDS011;3259;51.080;13.712;2023-06-22T16:35:22;80.97;;;46.53;;
6452;SDS011;3259;51.080;13.712;2023-06-22T16:38:11;78.43;;;46.70;;
6452;SDS011;3259;51.080;13.712;2023-06-22T16:40:59;78.18;;;46.50;;
6452;SDS011;3259;51.080;13.712;2023-06-22T16:43:48;71.38;;;43.55;;
6452;SDS011;3259;51.080;13.712;2023-06-22T16:46:38;73.20;;;44.60;;
6452;SDS011;3259;51.080;13.712;2023-06-22T16:49:27;69.55;;;42.20;;
6452;SDS011;3259;51.080;13.712;2023-06-22T16:52:16;73.55;;;41.90;;
6452;SDS011;3259;51.080;13.712;2023-06-22T16:55:05;65.07;;;41.47;;
6452;SDS011;3259;51.080;13.712;2023-06-22T16:57:55;65.97;;;41.03;;
6452;SDS011;3259;51.080;13.712;2023-06-22T17:00:46;63.40;;;39.85;;
6452;SDS011;3259;51.080;13.712;2023-06-22T17:03:42;60.70;;;37.33;;